createdAt,value
2023-03-23T00:03:00.105Z,19.85
2023-03-23T00:06:08.253Z,21.73
2023-03-23T00:09:11.559Z,20.27
2023-03-23T00:12:16.750Z,22.10
2023-03-23T00:15:19.163Z,21.77
2023-03-23T00:18:22.977Z,22.27
2023-03-23T00:21:34.749Z,22.30
2023-03-23T00:24:38.094Z,21.60
2023-03-23T00:27:41.827Z,23.25
2023-03-23T00:30:46.168Z,19.35
2023-03-23T00:33:48.504Z,19.40
2023-03-23T00:36:54.525Z,20.13
2023-03-23T00:39:58.594Z,20.20
2023-03-23T00:43:01.172Z,20.98
2023-03-23T00:46:09.678Z,20.85
2023-03-23T00:49:17.024Z,20.58
2023-03-23T00:52:19.399Z,20.20
2023-03-23T00:55:21.869Z,19.90
2023-03-23T00:58:24.209Z,19.05
2023-03-23T01:01:26.697Z,21.45
2023-03-23T01:04:32.781Z,19.52
2023-03-23T01:07:35.203Z,18.30
2023-03-23T01:10:39.954Z,20.95
2023-03-23T01:13:43.537Z,19.80
2023-03-23T01:16:46.201Z,22.10
2023-03-23T01:19:48.690Z,21.85
2023-03-23T01:22:50.978Z,21.70
2023-03-23T01:25:55.745Z,23.25
2023-03-23T01:28:58.434Z,26.63
2023-03-23T01:32:04.115Z,25.45
2023-03-23T01:35:07.128Z,23.88
2023-03-23T01:38:10.273Z,24.42
2023-03-23T01:41:13.464Z,22.83
2023-03-23T01:44:16.953Z,21.23
2023-03-23T01:47:29.782Z,22.73
2023-03-23T01:50:47.623Z,21.88
2023-03-23T01:53:55.766Z,20.73
2023-03-23T01:57:03.480Z,21.80
2023-03-23T02:00:16.308Z,24.48
2023-03-23T02:03:24.975Z,24.10
2023-03-23T02:06:27.823Z,24.92
2023-03-23T02:09:41.886Z,22.65
2023-03-23T02:12:44.391Z,22.15
2023-03-23T02:15:52.842Z,22.17
2023-03-23T02:19:04.713Z,23.50
2023-03-23T02:22:31.586Z,22.80
2023-03-23T02:25:52.088Z,25.80
2023-03-23T02:29:00.152Z,29.27
2023-03-23T02:32:28.104Z,22.60
2023-03-23T02:35:45.139Z,25.45
2023-03-23T02:39:05.058Z,23.02
2023-03-23T02:42:13.336Z,26.05
2023-03-23T02:45:20.696Z,23.35
2023-03-23T02:48:27.303Z,23.60
2023-03-23T02:51:31.704Z,26.58
2023-03-23T02:54:49.339Z,21.73
2023-03-23T02:57:54.131Z,24.20
2023-03-23T03:00:57.602Z,27.30
2023-03-23T03:04:28.090Z,24.45
2023-03-23T03:07:56.901Z,23.48
2023-03-23T03:11:17.250Z,26.05
2023-03-23T03:14:34.412Z,25.13
2023-03-23T03:17:44.784Z,24.90
2023-03-23T03:20:51.148Z,25.38
2023-03-23T03:23:55.685Z,25.00
2023-03-23T03:27:01.451Z,26.25
2023-03-23T03:30:16.320Z,25.60
2023-03-23T03:33:21.735Z,24.52
2023-03-23T03:36:28.840Z,23.77
2023-03-23T03:39:31.227Z,25.25
2023-03-23T03:42:33.635Z,24.35
2023-03-23T03:45:36.679Z,24.00
2023-03-23T03:48:39.196Z,23.67
2023-03-23T03:51:41.847Z,24.90
2023-03-23T03:54:49.942Z,27.17
2023-03-23T03:57:52.338Z,25.98
2023-03-23T04:01:33.564Z,26.35
2023-03-23T04:04:36.405Z,26.90
2023-03-23T04:07:42.539Z,27.75
2023-03-23T04:10:45.324Z,23.30
2023-03-23T04:13:48.121Z,26.27
2023-03-23T04:17:02.912Z,23.27
2023-03-23T04:20:12.731Z,25.73
2023-03-23T04:23:21.030Z,25.43
2023-03-23T04:26:23.614Z,26.98
2023-03-23T04:29:28.091Z,28.88
2023-03-23T04:32:56.453Z,24.80
2023-03-23T04:36:03.727Z,23.67
2023-03-23T04:39:14.518Z,21.80
2023-03-23T04:42:16.777Z,27.20
2023-03-23T04:45:29.469Z,26.05
2023-03-23T04:48:36.121Z,24.75
2023-03-23T04:51:53.164Z,23.33
2023-03-23T04:55:14.502Z,24.73
2023-03-23T04:58:20.511Z,22.63
2023-03-23T05:01:46.716Z,23.30
2023-03-23T05:05:12.191Z,23.20
2023-03-23T05:08:18.206Z,22.77
2023-03-23T05:11:20.769Z,22.85
2023-03-23T05:14:23.360Z,25.30
2023-03-23T05:17:37.600Z,25.27
2023-03-23T05:20:48.340Z,23.80
2023-03-23T05:23:55.960Z,24.95
2023-03-23T05:26:59.761Z,28.20
2023-03-23T05:30:08.461Z,26.23
2023-03-23T05:33:14.707Z,28.02
2023-03-23T05:36:25.162Z,27.38
2023-03-23T05:39:47.776Z,25.50
2023-03-23T05:43:11.110Z,24.98
2023-03-23T05:46:36.425Z,26.02
2023-03-23T05:49:39.486Z,26.02
2023-03-23T05:52:45.141Z,30.17
2023-03-23T05:55:49.930Z,26.58
2023-03-23T05:59:03.868Z,27.17
2023-03-23T06:02:09.669Z,29.27
2023-03-23T06:05:12.381Z,29.02
2023-03-23T06:08:17.223Z,28.42
2023-03-23T06:11:20.133Z,29.95
2023-03-23T06:14:40.023Z,28.83
2023-03-23T06:17:43.302Z,28.98
2023-03-23T06:20:48.135Z,26.95
2023-03-23T06:24:11.533Z,27.70
2023-03-23T06:27:17.008Z,25.38
2023-03-23T06:30:20.545Z,27.98
2023-03-23T06:33:24.854Z,27.15
2023-03-23T06:36:46.025Z,27.33
2023-03-23T06:39:53.103Z,27.08
2023-03-23T06:43:00.558Z,32.60
2023-03-23T06:46:25.255Z,31.05
2023-03-23T06:49:59.970Z,30.70
2023-03-23T06:53:04.233Z,29.60
2023-03-23T06:56:07.132Z,27.70
2023-03-23T06:59:11.500Z,28.95
2023-03-23T07:02:15.840Z,33.65
2023-03-23T07:05:20.851Z,33.30
2023-03-23T07:08:26.391Z,29.13
2023-03-23T07:11:28.852Z,28.20
2023-03-23T07:14:35.101Z,33.92
2023-03-23T07:17:41.153Z,34.10
2023-03-23T07:20:59.043Z,29.40
2023-03-23T07:24:05.968Z,26.63
2023-03-23T07:27:24.645Z,28.65
2023-03-23T07:30:31.058Z,31.92
2023-03-23T07:33:33.431Z,29.92
2023-03-23T07:36:38.753Z,33.25
2023-03-23T07:39:43.450Z,28.77
2023-03-23T07:42:50.697Z,29.55
2023-03-23T07:46:01.083Z,26.98
2023-03-23T07:49:12.584Z,30.65
2023-03-23T07:52:29.754Z,26.33
2023-03-23T07:55:33.058Z,25.25
2023-03-23T07:59:00.428Z,26.88
2023-03-23T08:02:03.041Z,26.52
2023-03-23T08:05:05.943Z,26.52
2023-03-23T08:08:43.208Z,26.63
2023-03-23T08:12:18.309Z,25.48
2023-03-23T08:15:41.055Z,30.13
2023-03-23T08:19:12.732Z,23.52
2023-03-23T08:22:25.086Z,28.27
2023-03-23T08:25:54.794Z,27.52
2023-03-23T08:29:20.121Z,28.30
2023-03-23T08:32:56.169Z,28.52
2023-03-23T08:36:25.816Z,23.48
2023-03-23T08:39:56.362Z,29.25
2023-03-23T08:43:28.457Z,31.92
2023-03-23T08:46:58.038Z,23.95
2023-03-23T08:50:16.194Z,22.98
2023-03-23T08:53:24.586Z,24.25
2023-03-23T08:56:53.742Z,20.90
2023-03-23T09:00:01.317Z,26.27
2023-03-23T09:03:18.731Z,26.98
2023-03-23T09:06:38.536Z,29.80
2023-03-23T09:09:41.782Z,26.17
2023-03-23T09:12:50.195Z,27.23
2023-03-23T09:15:55.472Z,25.83
2023-03-23T09:18:58.163Z,28.08
2023-03-23T09:22:01.536Z,27.30
2023-03-23T09:25:05.818Z,28.35
2023-03-23T09:28:08.249Z,29.75
2023-03-23T09:31:12.230Z,25.88
2023-03-23T09:34:16.599Z,28.85
2023-03-23T09:37:18.819Z,27.50
2023-03-23T09:40:23.037Z,29.55
2023-03-23T09:43:40.957Z,26.38
2023-03-23T09:47:07.560Z,26.25
2023-03-23T09:50:19.820Z,26.65
2023-03-23T09:53:26.659Z,26.50
2023-03-23T09:56:33.701Z,26.85
2023-03-23T09:59:41.567Z,27.67
2023-03-23T10:03:06.660Z,27.17
2023-03-23T10:06:12.293Z,25.42
2023-03-23T10:09:19.292Z,28.02
2023-03-23T10:12:30.452Z,28.75
2023-03-23T10:15:37.249Z,25.98
2023-03-23T10:18:50.598Z,28.92
2023-03-23T10:21:57.052Z,27.25
2023-03-23T10:25:14.370Z,24.80
2023-03-23T10:28:22.905Z,27.70
2023-03-23T10:31:31.167Z,25.65
2023-03-23T10:34:46.765Z,24.75
2023-03-23T10:37:58.158Z,27.70
2023-03-23T10:41:26.622Z,27.70
2023-03-23T10:44:28.908Z,28.58
2023-03-23T10:47:31.202Z,26.45
2023-03-23T10:50:36.916Z,29.58
2023-03-23T10:53:48.571Z,26.60
2023-03-23T10:56:59.248Z,31.10
2023-03-23T11:00:09.589Z,26.40
2023-03-23T11:03:14.877Z,27.08
2023-03-23T11:06:27.587Z,30.58
2023-03-23T11:09:52.451Z,27.67
2023-03-23T11:12:59.080Z,29.60
2023-03-23T11:16:01.939Z,28.55
2023-03-23T11:19:16.034Z,27.88
2023-03-23T11:22:30.202Z,28.48
2023-03-23T11:25:33.481Z,30.90
2023-03-23T11:28:39.064Z,30.20
2023-03-23T11:31:44.165Z,30.00
2023-03-23T11:34:55.531Z,32.45
2023-03-23T11:38:00.380Z,29.38
2023-03-23T11:41:02.889Z,30.42
2023-03-23T11:44:11.793Z,31.08
2023-03-23T11:47:37.703Z,28.08
2023-03-23T11:51:10.444Z,30.35
2023-03-23T11:54:28.946Z,28.17
2023-03-23T11:57:31.982Z,28.90
2023-03-23T12:00:35.763Z,27.40
2023-03-23T12:04:17.269Z,32.15
2023-03-23T12:07:49.147Z,29.40
2023-03-23T12:14:03.507Z,27.60
2023-03-23T12:17:14.617Z,28.42
2023-03-23T12:20:59.630Z,30.98
2023-03-23T12:24:25.360Z,29.75
2023-03-23T12:27:31.066Z,31.85
2023-03-23T12:30:43.715Z,29.48
2023-03-23T12:34:23.556Z,31.38
2023-03-23T12:37:57.918Z,32.17
2023-03-23T12:41:24.061Z,30.73
2023-03-23T12:44:40.750Z,33.05
2023-03-23T12:47:46.217Z,33.45
2023-03-23T12:51:04.763Z,33.80
2023-03-23T12:54:33.986Z,31.17
2023-03-23T12:58:00.421Z,35.47
2023-03-23T13:01:30.819Z,34.85
2023-03-23T13:04:41.892Z,35.05
2023-03-23T13:07:53.238Z,35.08
2023-03-23T13:11:00.544Z,37.03
2023-03-23T13:14:33.398Z,34.88
2023-03-23T13:17:52.862Z,32.35
2023-03-23T13:21:11.612Z,32.57
2023-03-23T13:24:19.008Z,33.13
2023-03-23T13:27:29.359Z,32.22
2023-03-23T13:30:32.381Z,32.58
2023-03-23T13:33:39.678Z,31.85
2023-03-23T13:36:45.867Z,35.63
2023-03-23T13:39:57.242Z,32.95
2023-03-23T13:43:01.332Z,29.90
2023-03-23T13:46:12.005Z,31.80
2023-03-23T13:49:22.135Z,31.92
2023-03-23T13:55:29.636Z,25.55
2023-03-23T13:58:31.900Z,27.85
2023-03-23T14:01:42.338Z,27.00
2023-03-23T14:04:49.725Z,41.38
2023-03-23T14:08:04.891Z,24.23
2023-03-23T14:11:13.892Z,25.52
2023-03-23T14:14:44.178Z,21.80
2023-03-23T14:20:49.820Z,19.83
2023-03-23T14:23:52.059Z,20.13
2023-03-23T14:27:03.350Z,21.80
2023-03-23T14:30:14.501Z,20.13
2023-03-23T14:33:16.875Z,18.30
2023-03-23T14:36:28.632Z,19.02
2023-03-23T14:39:32.214Z,18.35
2023-03-23T14:42:37.109Z,21.45
2023-03-23T14:45:40.598Z,18.20
2023-03-23T14:48:43.018Z,20.08
2023-03-23T14:51:53.525Z,19.45
2023-03-23T14:54:56.832Z,17.17
2023-03-23T14:58:09.588Z,19.00
2023-03-23T15:01:16.364Z,17.50
2023-03-23T15:04:25.731Z,16.42
2023-03-23T15:07:33.579Z,15.63
2023-03-23T15:10:36.056Z,19.75
2023-03-23T15:13:43.089Z,17.20
2023-03-23T15:16:56.570Z,16.88
2023-03-23T15:19:59.781Z,18.88
2023-03-23T15:23:09.389Z,16.00
2023-03-23T15:26:24.809Z,14.55
2023-03-23T15:29:27.173Z,14.82
2023-03-23T15:32:43.571Z,16.15
2023-03-23T15:35:58.296Z,14.82
2023-03-23T15:39:01.268Z,14.10
2023-03-23T15:42:07.055Z,14.43
2023-03-23T15:45:12.389Z,12.80
2023-03-23T15:48:15.005Z,13.85
2023-03-23T15:51:23.078Z,14.27
2023-03-23T15:54:30.285Z,15.82
2023-03-23T15:57:32.551Z,18.05
2023-03-23T16:00:36.052Z,13.13
2023-03-23T16:04:00.656Z,13.65
2023-03-23T16:07:03.144Z,12.40
2023-03-23T16:10:07.759Z,12.75
2023-03-23T16:13:10.048Z,12.93
2023-03-23T16:16:28.969Z,13.15
2023-03-23T16:19:31.990Z,15.05
2023-03-23T16:22:34.282Z,22.10
2023-03-23T16:25:37.849Z,14.25
2023-03-23T16:28:40.414Z,18.88
2023-03-23T16:31:42.769Z,22.52
2023-03-23T16:34:45.023Z,18.30
2023-03-23T16:38:07.700Z,17.92
2023-03-23T16:41:11.190Z,16.70
2023-03-23T16:44:13.842Z,16.48
2023-03-23T16:47:19.116Z,19.85
2023-03-23T16:50:21.694Z,15.40
2023-03-23T16:53:25.120Z,17.08
2023-03-23T16:56:27.476Z,17.70
2023-03-23T16:59:29.932Z,14.25
2023-03-23T17:02:32.723Z,14.65
2023-03-23T17:05:36.634Z,17.23
2023-03-23T17:08:39.113Z,18.00
2023-03-23T17:11:41.573Z,14.38
2023-03-23T17:14:44.129Z,13.07
2023-03-23T17:17:46.849Z,13.25
2023-03-23T17:20:52.568Z,18.88
2023-03-23T17:23:55.030Z,14.70
2023-03-23T17:26:57.386Z,11.93
2023-03-23T17:30:00.360Z,14.75
2023-03-23T17:33:03.417Z,13.45
2023-03-23T17:36:05.961Z,13.50
2023-03-23T17:39:08.204Z,16.25
2023-03-23T17:42:10.649Z,13.98
2023-03-23T17:45:13.054Z,15.32
2023-03-23T17:48:15.461Z,11.38
2023-03-23T17:51:18.098Z,12.10
2023-03-23T17:54:20.453Z,10.98
2023-03-23T17:57:22.855Z,12.25
2023-03-23T18:00:26.157Z,12.65
2023-03-23T18:03:28.723Z,12.10
2023-03-23T18:06:31.079Z,11.32
2023-03-23T18:09:33.347Z,14.65
2023-03-23T18:12:35.711Z,9.68
2023-03-23T18:15:37.961Z,10.40
2023-03-23T18:18:40.269Z,9.43
2023-03-23T18:21:45.340Z,10.32
2023-03-23T18:24:48.439Z,9.93
2023-03-23T18:27:51.044Z,10.82
2023-03-23T18:30:54.158Z,10.15
2023-03-23T18:33:57.043Z,11.55
2023-03-23T18:36:59.331Z,12.07
2023-03-23T18:40:02.103Z,12.88
2023-03-23T18:43:04.475Z,11.02
2023-03-23T18:46:08.858Z,9.65
2023-03-23T18:49:11.503Z,13.75
2023-03-23T18:52:13.774Z,11.32
2023-03-23T18:55:16.289Z,11.48
2023-03-23T18:58:19.812Z,10.13
2023-03-23T19:01:22.381Z,11.68
2023-03-23T19:04:24.819Z,8.55
2023-03-23T19:07:27.932Z,13.18
2023-03-23T19:10:31.954Z,13.15
2023-03-23T19:13:34.558Z,9.45
2023-03-23T19:16:36.933Z,10.75
2023-03-23T19:19:43.209Z,11.30
2023-03-23T19:22:45.984Z,10.77
2023-03-23T19:25:48.953Z,12.35
2023-03-23T19:31:57.684Z,11.73
2023-03-23T19:35:00.004Z,12.88
2023-03-23T19:38:02.355Z,15.05
2023-03-23T19:41:05.812Z,16.58
2023-03-23T19:44:08.768Z,15.63
2023-03-23T19:47:11.176Z,15.05
2023-03-23T19:50:14.242Z,13.15
2023-03-23T19:53:19.065Z,17.75
2023-03-23T19:56:22.750Z,14.90
2023-03-23T19:59:25.626Z,16.00
2023-03-23T20:02:27.951Z,13.60
2023-03-23T20:05:30.202Z,17.23
2023-03-23T20:08:32.993Z,17.02
2023-03-23T20:11:35.292Z,17.25
2023-03-23T20:14:44.323Z,14.32
2023-03-23T20:17:48.498Z,15.43
2023-03-23T20:20:52.673Z,16.65
2023-03-23T20:23:57.753Z,13.43
2023-03-23T20:27:03.196Z,14.60
2023-03-23T20:30:07.704Z,14.10
2023-03-23T20:33:10.789Z,18.48
2023-03-23T20:36:14.998Z,14.07
2023-03-23T20:39:21.514Z,15.90
2023-03-23T20:42:23.895Z,15.30
2023-03-23T20:45:26.228Z,14.70
2023-03-23T20:48:32.302Z,14.85
2023-03-23T20:51:35.522Z,17.17
2023-03-23T20:54:38.483Z,13.25
2023-03-23T20:57:42.318Z,16.20
2023-03-23T21:00:45.299Z,18.73
2023-03-23T21:03:48.197Z,16.63
2023-03-23T21:06:52.060Z,15.00
2023-03-23T21:09:54.580Z,18.80
2023-03-23T21:12:57.430Z,18.95
2023-03-23T21:16:02.502Z,18.00
2023-03-23T21:19:05.936Z,19.98
2023-03-23T21:22:09.963Z,13.52
2023-03-23T21:25:12.229Z,15.05
2023-03-23T21:28:15.628Z,17.98
2023-03-23T21:31:18.448Z,16.90
2023-03-23T21:34:20.646Z,17.13
2023-03-23T21:37:22.869Z,14.38
2023-03-23T21:40:26.395Z,16.77
2023-03-23T21:43:28.892Z,17.77
2023-03-23T21:46:31.982Z,14.57
2023-03-23T21:49:34.285Z,15.98
2023-03-23T21:52:36.775Z,16.23
2023-03-23T21:55:41.295Z,22.23
2023-03-23T21:58:44.374Z,14.57
2023-03-23T22:01:48.808Z,14.30
2023-03-23T22:04:52.424Z,15.65
2023-03-23T22:07:54.782Z,16.17
2023-03-23T22:11:02.129Z,19.02
2023-03-23T22:14:09.779Z,16.33
2023-03-23T22:17:12.328Z,16.42
2023-03-23T22:20:14.779Z,19.45
2023-03-23T22:23:17.470Z,16.05
2023-03-23T22:26:20.699Z,16.35
2023-03-23T22:29:23.351Z,15.93
2023-03-23T22:32:25.764Z,15.48
2023-03-23T22:35:29.171Z,15.98
2023-03-23T22:38:31.903Z,16.63
2023-03-23T22:41:38.270Z,14.80
2023-03-23T22:44:40.994Z,14.73
2023-03-23T22:47:43.379Z,14.07
2023-03-23T22:50:47.373Z,18.85
2023-03-23T22:53:50.134Z,18.33
2023-03-23T22:56:52.498Z,18.50
2023-03-23T22:59:54.989Z,17.60
2023-03-23T23:02:57.298Z,18.70
2023-03-23T23:06:00.998Z,19.85
2023-03-23T23:09:04.491Z,16.75
2023-03-23T23:12:07.306Z,19.10
2023-03-23T23:15:13.067Z,19.38
2023-03-23T23:18:16.114Z,15.88
2023-03-23T23:21:20.837Z,17.85
2023-03-23T23:24:23.240Z,15.68
2023-03-23T23:27:25.868Z,17.00
2023-03-23T23:30:29.160Z,17.35
2023-03-23T23:33:31.679Z,18.63
2023-03-23T23:36:34.052Z,21.42
2023-03-23T23:39:38.538Z,15.82
2023-03-23T23:42:41.601Z,18.92
2023-03-23T23:45:44.354Z,19.75
2023-03-23T23:48:47.603Z,19.10
2023-03-23T23:51:49.942Z,18.20
2023-03-23T23:54:52.924Z,20.42
2023-03-23T23:57:56.216Z,21.08
